sensor_id;sensor_type;location;lat;lon;timestamp;pressure;altitude;pressure_sealevel;temperature;humidity
30819;BME280;17546;42.674;23.284;2022-11-20T00:00:34;93989.47;;;23.72;36.66
30819;BME280;17546;42.674;23.284;2022-11-20T00:02:59;93937.78;;;23.19;37.64
30819;BME280;17546;42.674;23.284;2022-11-20T00:05:25;93950.28;;;23.57;37.35
30819;BME280;17546;42.674;23.284;2022-11-20T00:07:50;93957.78;;;23.43;37.70
30819;BME280;17546;42.674;23.284;2022-11-20T00:10:18;93954.94;;;23.12;38.09
30819;BME280;17546;42.674;23.284;2022-11-20T00:12:44;93948.06;;;23.24;37.59
30819;BME280;17546;42.674;23.284;2022-11-20T00:15:09;93947.97;;;23.65;37.03
30819;BME280;17546;42.674;23.284;2022-11-20T00:17:35;93962.25;;;23.77;37.21
30819;BME280;17546;42.674;23.284;2022-11-20T00:20:00;93929.88;;;23.90;36.56
30819;BME280;17546;42.674;23.284;2022-11-20T00:22:26;93950.41;;;23.59;36.67
30819;BME280;17546;42.674;23.284;2022-11-20T00:24:51;93927.25;;;23.51;36.92
30819;BME280;17546;42.674;23.284;2022-11-20T00:27:16;93968.50;;;23.76;36.77
30819;BME280;17546;42.674;23.284;2022-11-20T00:29:42;93953.81;;;24.32;35.74
30819;BME280;17546;42.674;23.284;2022-11-20T00:32:07;93929.19;;;24.01;35.98
30819;BME280;17546;42.674;23.284;2022-11-20T00:34:33;93940.34;;;24.21;35.95
30819;BME280;17546;42.674;23.284;2022-11-20T00:36:58;93936.06;;;23.98;36.07
30819;BME280;17546;42.674;23.284;2022-11-20T00:39:23;93927.16;;;23.92;36.18
30819;BME280;17546;42.674;23.284;2022-11-20T00:41:49;93957.13;;;23.23;37.61
30819;BME280;17546;42.674;23.284;2022-11-20T00:44:15;93949.47;;;24.19;36.17
30819;BME280;17546;42.674;23.284;2022-11-20T00:46:40;93936.34;;;23.71;36.44
30819;BME280;17546;42.674;23.284;2022-11-20T00:49:06;93959.63;;;24.34;35.69
30819;BME280;17546;42.674;23.284;2022-11-20T00:51:31;93949.88;;;23.10;37.21
30819;BME280;17546;42.674;23.284;2022-11-20T00:53:57;93963.25;;;23.50;36.88
30819;BME280;17546;42.674;23.284;2022-11-20T00:56:25;93941.97;;;23.81;36.63
30819;BME280;17546;42.674;23.284;2022-11-20T00:58:51;93982.63;;;23.35;37.39
30819;BME280;17546;42.674;23.284;2022-11-20T01:01:29;93948.31;;;24.12;36.19
30819;BME280;17546;42.674;23.284;2022-11-20T01:03:57;93971.88;;;24.27;36.16
30819;BME280;17546;42.674;23.284;2022-11-20T01:06:31;93957.03;;;23.73;36.64
30819;BME280;17546;42.674;23.284;2022-11-20T01:08:59;93961.63;;;24.43;35.85
30819;BME280;17546;42.674;23.284;2022-11-20T01:11:29;93955.81;;;23.77;36.96
30819;BME280;17546;42.674;23.284;2022-11-20T01:14:06;93956.66;;;24.32;36.10
30819;BME280;17546;42.674;23.284;2022-11-20T01:16:37;93965.16;;;24.32;36.24
30819;BME280;17546;42.674;23.284;2022-11-20T01:19:07;93927.41;;;24.39;35.83
30819;BME280;17546;42.674;23.284;2022-11-20T01:21:35;93972.56;;;24.70;35.39
30819;BME280;17546;42.674;23.284;2022-11-20T01:24:07;93930.25;;;24.72;35.35
30819;BME280;17546;42.674;23.284;2022-11-20T01:26:35;93945.13;;;24.18;36.12
30819;BME280;17546;42.674;23.284;2022-11-20T01:29:01;93936.50;;;24.16;36.31
30819;BME280;17546;42.674;23.284;2022-11-20T01:31:34;93922.91;;;24.24;36.03
30819;BME280;17546;42.674;23.284;2022-11-20T01:34:10;93908.63;;;23.26;36.66
30819;BME280;17546;42.674;23.284;2022-11-20T01:36:37;93910.22;;;23.61;36.59
30819;BME280;17546;42.674;23.284;2022-11-20T01:39:20;93918.06;;;23.93;36.47
30819;BME280;17546;42.674;23.284;2022-11-20T01:41:50;93896.56;;;23.04;37.35
30819;BME280;17546;42.674;23.284;2022-11-20T01:44:53;93925.00;;;24.02;36.02
30819;BME280;17546;42.674;23.284;2022-11-20T01:47:40;93897.19;;;24.53;35.08
30819;BME280;17546;42.674;23.284;2022-11-20T01:53:03;93925.66;;;24.34;35.81
30819;BME280;17546;42.674;23.284;2022-11-20T01:55:34;93948.81;;;24.42;35.20
30819;BME280;17546;42.674;23.284;2022-11-20T01:58:09;93944.31;;;24.49;35.24
30819;BME280;17546;42.674;23.284;2022-11-20T02:00:35;93946.75;;;24.76;35.15
30819;BME280;17546;42.674;23.284;2022-11-20T02:03:04;93945.84;;;24.62;35.41
30819;BME280;17546;42.674;23.284;2022-11-20T02:05:41;93940.13;;;24.83;34.92
30819;BME280;17546;42.674;23.284;2022-11-20T02:08:10;93932.47;;;24.41;35.78
30819;BME280;17546;42.674;23.284;2022-11-20T02:10:35;93958.16;;;24.45;35.37
30819;BME280;17546;42.674;23.284;2022-11-20T02:13:01;93941.75;;;24.53;35.41
30819;BME280;17546;42.674;23.284;2022-11-20T02:15:46;93933.84;;;24.51;35.15
30819;BME280;17546;42.674;23.284;2022-11-20T02:18:14;93978.97;;;24.71;35.15
30819;BME280;17546;42.674;23.284;2022-11-20T02:20:45;93942.94;;;23.64;36.64
30819;BME280;17546;42.674;23.284;2022-11-20T02:25:40;93941.56;;;24.18;36.16
30819;BME280;17546;42.674;23.284;2022-11-20T02:28:07;93951.88;;;23.91;36.46
30819;BME280;17546;42.674;23.284;2022-11-20T02:30:40;93973.41;;;24.40;35.49
30819;BME280;17546;42.674;23.284;2022-11-20T02:33:05;93953.28;;;24.24;35.28
30819;BME280;17546;42.674;23.284;2022-11-20T02:37:59;93945.34;;;23.89;36.00
30819;BME280;17546;42.674;23.284;2022-11-20T02:40:25;93964.94;;;24.73;35.08
30819;BME280;17546;42.674;23.284;2022-11-20T02:42:55;93917.56;;;23.54;37.05
30819;BME280;17546;42.674;23.284;2022-11-20T02:45:21;93959.34;;;23.87;36.57
30819;BME280;17546;42.674;23.284;2022-11-20T02:47:48;93965.69;;;24.19;35.75
30819;BME280;17546;42.674;23.284;2022-11-20T02:50:13;93952.16;;;24.17;36.14
30819;BME280;17546;42.674;23.284;2022-11-20T02:52:38;93976.53;;;23.38;37.77
30819;BME280;17546;42.674;23.284;2022-11-20T02:55:05;93958.34;;;23.10;38.20
30819;BME280;17546;42.674;23.284;2022-11-20T02:57:31;93973.25;;;23.73;37.25
30819;BME280;17546;42.674;23.284;2022-11-20T02:59:56;93947.03;;;23.51;37.90
30819;BME280;17546;42.674;23.284;2022-11-20T03:02:22;93973.63;;;24.32;36.43
30819;BME280;17546;42.674;23.284;2022-11-20T03:04:47;93975.06;;;24.21;36.73
30819;BME280;17546;42.674;23.284;2022-11-20T03:07:13;93966.44;;;23.66;37.99
30819;BME280;17546;42.674;23.284;2022-11-20T03:09:38;93964.81;;;23.63;38.23
30819;BME280;17546;42.674;23.284;2022-11-20T03:12:04;93973.91;;;23.30;38.57
30819;BME280;17546;42.674;23.284;2022-11-20T03:14:29;93957.53;;;23.29;38.94
30819;BME280;17546;42.674;23.284;2022-11-20T03:16:55;93980.88;;;23.92;37.75
30819;BME280;17546;42.674;23.284;2022-11-20T03:19:21;93956.22;;;23.61;38.38
30819;BME280;17546;42.674;23.284;2022-11-20T03:21:46;93975.94;;;23.71;38.09
30819;BME280;17546;42.674;23.284;2022-11-20T03:24:12;93969.94;;;23.14;38.88
30819;BME280;17546;42.674;23.284;2022-11-20T03:26:38;93970.38;;;23.83;38.05
30819;BME280;17546;42.674;23.284;2022-11-20T03:29:04;93965.75;;;23.56;37.79
30819;BME280;17546;42.674;23.284;2022-11-20T03:31:32;93969.78;;;23.12;38.50
30819;BME280;17546;42.674;23.284;2022-11-20T03:33:58;93988.34;;;23.56;37.98
30819;BME280;17546;42.674;23.284;2022-11-20T03:36:42;93969.91;;;23.24;38.89
30819;BME280;17546;42.674;23.284;2022-11-20T03:39:08;93988.78;;;23.62;37.59
30819;BME280;17546;42.674;23.284;2022-11-20T03:41:39;94008.09;;;23.66;37.74
30819;BME280;17546;42.674;23.284;2022-11-20T03:44:06;93991.22;;;23.46;38.61
30819;BME280;17546;42.674;23.284;2022-11-20T03:46:32;94001.50;;;23.42;38.13
30819;BME280;17546;42.674;23.284;2022-11-20T03:48:58;94002.22;;;23.01;38.65
30819;BME280;17546;42.674;23.284;2022-11-20T03:51:26;94011.53;;;23.23;38.13
30819;BME280;17546;42.674;23.284;2022-11-20T03:53:54;94004.75;;;24.10;36.79
30819;BME280;17546;42.674;23.284;2022-11-20T03:56:24;94002.34;;;24.17;36.88
30819;BME280;17546;42.674;23.284;2022-11-20T03:58:49;93992.47;;;23.65;37.20
30819;BME280;17546;42.674;23.284;2022-11-20T04:01:18;94010.06;;;23.95;36.92
30819;BME280;17546;42.674;23.284;2022-11-20T04:03:44;94015.41;;;24.22;36.81
30819;BME280;17546;42.674;23.284;2022-11-20T04:06:20;94003.84;;;22.95;38.80
30819;BME280;17546;42.674;23.284;2022-11-20T04:08:46;94024.88;;;23.33;37.63
30819;BME280;17546;42.674;23.284;2022-11-20T04:11:12;94030.19;;;23.48;37.66
30819;BME280;17546;42.674;23.284;2022-11-20T04:13:39;94019.38;;;23.76;37.27
30819;BME280;17546;42.674;23.284;2022-11-20T04:16:06;94020.63;;;23.94;36.76
30819;BME280;17546;42.674;23.284;2022-11-20T04:18:32;94009.13;;;23.70;37.73
30819;BME280;17546;42.674;23.284;2022-11-20T04:20:58;94004.47;;;23.44;37.52
30819;BME280;17546;42.674;23.284;2022-11-20T04:23:24;93998.28;;;23.67;37.08
30819;BME280;17546;42.674;23.284;2022-11-20T04:25:49;93995.78;;;23.61;37.26
30819;BME280;17546;42.674;23.284;2022-11-20T04:28:15;94026.13;;;23.20;38.05
30819;BME280;17546;42.674;23.284;2022-11-20T04:30:40;94036.94;;;23.23;37.63
30819;BME280;17546;42.674;23.284;2022-11-20T04:33:06;94010.47;;;23.28;37.95
30819;BME280;17546;42.674;23.284;2022-11-20T04:35:34;94021.59;;;24.08;37.22
30819;BME280;17546;42.674;23.284;2022-11-20T04:37:59;94030.84;;;23.27;38.48
30819;BME280;17546;42.674;23.284;2022-11-20T04:40:25;94022.03;;;23.73;37.39
30819;BME280;17546;42.674;23.284;2022-11-20T04:42:50;94020.38;;;24.11;37.01
30819;BME280;17546;42.674;23.284;2022-11-20T04:45:15;93989.84;;;23.57;38.18
30819;BME280;17546;42.674;23.284;2022-11-20T04:47:41;94009.03;;;23.08;38.95
30819;BME280;17546;42.674;23.284;2022-11-20T04:50:06;94002.56;;;23.78;37.68
30819;BME280;17546;42.674;23.284;2022-11-20T04:52:32;94013.28;;;24.01;36.81
30819;BME280;17546;42.674;23.284;2022-11-20T04:54:57;93991.31;;;23.58;37.88
30819;BME280;17546;42.674;23.284;2022-11-20T04:57:23;94004.56;;;23.56;38.24
30819;BME280;17546;42.674;23.284;2022-11-20T04:59:48;93992.25;;;22.90;38.79
30819;BME280;17546;42.674;23.284;2022-11-20T05:02:13;93960.34;;;22.78;38.75
30819;BME280;17546;42.674;23.284;2022-11-20T05:04:39;93977.47;;;23.31;38.75
30819;BME280;17546;42.674;23.284;2022-11-20T05:07:04;93974.50;;;23.60;38.45
30819;BME280;17546;42.674;23.284;2022-11-20T05:09:30;93987.50;;;23.03;38.93
30819;BME280;17546;42.674;23.284;2022-11-20T05:11:55;93949.84;;;22.40;39.92
30819;BME280;17546;42.674;23.284;2022-11-20T05:14:21;93945.69;;;22.60;39.41
30819;BME280;17546;42.674;23.284;2022-11-20T05:16:46;93951.59;;;22.74;39.62
30819;BME280;17546;42.674;23.284;2022-11-20T05:19:12;93966.47;;;22.55;39.66
30819;BME280;17546;42.674;23.284;2022-11-20T05:21:37;93973.06;;;22.99;38.81
30819;BME280;17546;42.674;23.284;2022-11-20T05:24:02;93947.66;;;22.99;39.62
30819;BME280;17546;42.674;23.284;2022-11-20T05:26:28;93950.84;;;22.64;40.47
30819;BME280;17546;42.674;23.284;2022-11-20T05:28:53;93950.47;;;22.99;39.22
30819;BME280;17546;42.674;23.284;2022-11-20T05:31:24;93946.72;;;22.45;39.91
30819;BME280;17546;42.674;23.284;2022-11-20T05:33:49;93965.38;;;22.89;38.93
30819;BME280;17546;42.674;23.284;2022-11-20T05:36:15;93971.78;;;22.70;39.64
30819;BME280;17546;42.674;23.284;2022-11-20T05:38:42;93973.25;;;22.91;39.29
30819;BME280;17546;42.674;23.284;2022-11-20T05:43:37;93959.88;;;23.33;38.57
30819;BME280;17546;42.674;23.284;2022-11-20T05:46:04;93974.75;;;23.02;38.67
30819;BME280;17546;42.674;23.284;2022-11-20T05:48:30;93987.91;;;23.19;38.78
30819;BME280;17546;42.674;23.284;2022-11-20T05:51:00;93982.69;;;23.56;37.86
30819;BME280;17546;42.674;23.284;2022-11-20T05:53:26;93987.66;;;23.46;38.27
30819;BME280;17546;42.674;23.284;2022-11-20T05:56:03;93983.19;;;23.52;38.02
30819;BME280;17546;42.674;23.284;2022-11-20T05:58:29;94011.28;;;22.90;38.61
30819;BME280;17546;42.674;23.284;2022-11-20T06:01:13;94000.00;;;23.41;37.57
30819;BME280;17546;42.674;23.284;2022-11-20T06:03:40;94021.56;;;23.87;37.38
30819;BME280;17546;42.674;23.284;2022-11-20T06:06:07;94024.03;;;23.10;38.33
30819;BME280;17546;42.674;23.284;2022-11-20T06:08:34;94010.88;;;23.35;37.83
30819;BME280;17546;42.674;23.284;2022-11-20T06:11:04;94017.19;;;23.64;38.38
30819;BME280;17546;42.674;23.284;2022-11-20T06:13:30;94018.97;;;23.28;38.98
30819;BME280;17546;42.674;23.284;2022-11-20T06:15:59;94020.91;;;23.98;37.82
30819;BME280;17546;42.674;23.284;2022-11-20T06:18:26;94014.69;;;23.18;39.77
30819;BME280;17546;42.674;23.284;2022-11-20T06:20:59;94038.19;;;23.61;39.48
30819;BME280;17546;42.674;23.284;2022-11-20T06:23:25;94044.34;;;23.38;39.15
30819;BME280;17546;42.674;23.284;2022-11-20T06:25:50;94045.25;;;23.82;38.76
30819;BME280;17546;42.674;23.284;2022-11-20T06:28:16;94025.91;;;23.78;38.82
30819;BME280;17546;42.674;23.284;2022-11-20T06:30:44;94042.16;;;23.78;39.17
30819;BME280;17546;42.674;23.284;2022-11-20T06:33:11;94035.91;;;23.28;39.91
30819;BME280;17546;42.674;23.284;2022-11-20T06:35:36;94019.78;;;23.50;39.26
30819;BME280;17546;42.674;23.284;2022-11-20T06:38:01;94029.88;;;23.54;38.95
30819;BME280;17546;42.674;23.284;2022-11-20T06:40:27;94036.66;;;23.19;38.58
30819;BME280;17546;42.674;23.284;2022-11-20T06:42:54;94040.72;;;23.57;37.57
30819;BME280;17546;42.674;23.284;2022-11-20T06:45:20;94032.59;;;23.42;37.56
30819;BME280;17546;42.674;23.284;2022-11-20T06:47:45;94038.75;;;23.28;38.73
30819;BME280;17546;42.674;23.284;2022-11-20T06:50:11;94044.53;;;23.71;37.36
30819;BME280;17546;42.674;23.284;2022-11-20T06:52:36;94041.72;;;24.03;36.96
30819;BME280;17546;42.674;23.284;2022-11-20T06:55:02;94032.50;;;24.24;36.46
30819;BME280;17546;42.674;23.284;2022-11-20T06:57:27;94041.56;;;23.79;37.21
30819;BME280;17546;42.674;23.284;2022-11-20T06:59:53;94040.31;;;24.35;36.62
30819;BME280;17546;42.674;23.284;2022-11-20T07:02:18;94045.00;;;24.52;36.16
30819;BME280;17546;42.674;23.284;2022-11-20T07:04:43;94049.47;;;24.02;37.33
30819;BME280;17546;42.674;23.284;2022-11-20T07:07:09;94065.59;;;24.43;36.27
30819;BME280;17546;42.674;23.284;2022-11-20T07:09:34;94041.41;;;23.77;37.73
30819;BME280;17546;42.674;23.284;2022-11-20T07:12:00;94048.09;;;23.82;36.65
30819;BME280;17546;42.674;23.284;2022-11-20T07:14:25;94038.09;;;24.12;36.66
30819;BME280;17546;42.674;23.284;2022-11-20T07:16:51;94044.31;;;23.89;37.19
30819;BME280;17546;42.674;23.284;2022-11-20T07:19:16;94047.78;;;24.09;36.59
30819;BME280;17546;42.674;23.284;2022-11-20T07:21:41;94049.78;;;24.49;36.21
30819;BME280;17546;42.674;23.284;2022-11-20T07:24:07;94032.56;;;24.79;36.00
30819;BME280;17546;42.674;23.284;2022-11-20T07:26:32;94033.44;;;24.38;36.34
30819;BME280;17546;42.674;23.284;2022-11-20T07:28:58;94047.84;;;24.52;36.67
30819;BME280;17546;42.674;23.284;2022-11-20T07:31:23;94044.50;;;24.12;36.48
30819;BME280;17546;42.674;23.284;2022-11-20T07:33:49;94050.13;;;23.91;36.61
30819;BME280;17546;42.674;23.284;2022-11-20T07:36:14;94056.41;;;23.80;36.83
30819;BME280;17546;42.674;23.284;2022-11-20T07:38:40;94056.94;;;24.50;35.83
30819;BME280;17546;42.674;23.284;2022-11-20T07:41:05;94040.06;;;23.27;37.92
30819;BME280;17546;42.674;23.284;2022-11-20T07:43:30;94063.06;;;24.16;36.21
30819;BME280;17546;42.674;23.284;2022-11-20T07:45:56;94036.91;;;23.43;36.95
30819;BME280;17546;42.674;23.284;2022-11-20T07:48:23;94063.78;;;23.54;37.35
30819;BME280;17546;42.674;23.284;2022-11-20T07:50:48;94058.72;;;24.24;35.88
30819;BME280;17546;42.674;23.284;2022-11-20T07:53:14;94066.91;;;23.48;36.43
30819;BME280;17546;42.674;23.284;2022-11-20T07:55:45;94032.56;;;24.14;36.27
30819;BME280;17546;42.674;23.284;2022-11-20T07:58:11;94064.97;;;24.54;35.62
30819;BME280;17546;42.674;23.284;2022-11-20T08:00:36;94090.06;;;24.81;35.96
30819;BME280;17546;42.674;23.284;2022-11-20T08:03:04;94077.38;;;24.18;37.33
30819;BME280;17546;42.674;23.284;2022-11-20T08:05:29;94073.72;;;24.27;36.71
30819;BME280;17546;42.674;23.284;2022-11-20T08:07:55;94074.03;;;24.74;36.24
30819;BME280;17546;42.674;23.284;2022-11-20T08:10:20;94092.72;;;24.67;36.46
30819;BME280;17546;42.674;23.284;2022-11-20T08:12:50;94054.28;;;24.21;37.33
30819;BME280;17546;42.674;23.284;2022-11-20T08:15:35;94048.28;;;23.64;38.18
30819;BME280;17546;42.674;23.284;2022-11-20T08:18:11;94052.28;;;24.02;37.20
30819;BME280;17546;42.674;23.284;2022-11-20T08:20:37;94074.94;;;23.61;38.12
30819;BME280;17546;42.674;23.284;2022-11-20T08:23:06;94106.25;;;23.05;39.04
30819;BME280;17546;42.674;23.284;2022-11-20T08:25:32;94091.56;;;23.06;38.53
30819;BME280;17546;42.674;23.284;2022-11-20T08:27:59;94079.66;;;23.68;37.79
30819;BME280;17546;42.674;23.284;2022-11-20T08:30:25;94107.00;;;24.48;36.58
30819;BME280;17546;42.674;23.284;2022-11-20T08:32:51;94108.53;;;23.67;37.86
30819;BME280;17546;42.674;23.284;2022-11-20T08:35:16;94059.00;;;22.66;39.40
30819;BME280;17546;42.674;23.284;2022-11-20T08:37:41;94089.63;;;24.10;37.17
30819;BME280;17546;42.674;23.284;2022-11-20T08:40:12;94085.25;;;24.19;37.27
30819;BME280;17546;42.674;23.284;2022-11-20T08:42:45;94096.44;;;24.70;37.01
30819;BME280;17546;42.674;23.284;2022-11-20T08:45:11;94127.34;;;24.56;37.58
30819;BME280;17546;42.674;23.284;2022-11-20T08:47:37;94135.47;;;24.40;39.50
30819;BME280;17546;42.674;23.284;2022-11-20T08:50:02;94104.00;;;22.84;43.53
30819;BME280;17546;42.674;23.284;2022-11-20T08:52:28;94116.50;;;23.39;44.26
30819;BME280;17546;42.674;23.284;2022-11-20T08:54:53;94123.47;;;22.89;45.04
30819;BME280;17546;42.674;23.284;2022-11-20T08:57:19;94086.44;;;22.37;46.27
30819;BME280;17546;42.674;23.284;2022-11-20T08:59:46;94091.06;;;22.61;45.68
30819;BME280;17546;42.674;23.284;2022-11-20T09:02:13;94105.16;;;22.32;45.77
30819;BME280;17546;42.674;23.284;2022-11-20T09:04:38;94104.44;;;22.61;44.77
30819;BME280;17546;42.674;23.284;2022-11-20T09:07:04;94104.19;;;22.10;45.33
30819;BME280;17546;42.674;23.284;2022-11-20T09:09:29;94108.19;;;22.07;46.76
30819;BME280;17546;42.674;23.284;2022-11-20T09:11:54;94129.00;;;22.21;45.53
30819;BME280;17546;42.674;23.284;2022-11-20T09:14:20;94124.69;;;22.86;45.03
30819;BME280;17546;42.674;23.284;2022-11-20T09:16:46;94133.91;;;23.16;44.75
30819;BME280;17546;42.674;23.284;2022-11-20T09:19:12;94145.19;;;23.16;45.28
30819;BME280;17546;42.674;23.284;2022-11-20T09:21:37;94124.06;;;22.59;46.86
30819;BME280;17546;42.674;23.284;2022-11-20T09:24:02;94116.44;;;22.32;45.86
30819;BME280;17546;42.674;23.284;2022-11-20T09:26:28;94115.75;;;22.61;44.88
30819;BME280;17546;42.674;23.284;2022-11-20T09:28:54;94117.34;;;22.35;45.70
30819;BME280;17546;42.674;23.284;2022-11-20T09:31:24;94103.13;;;21.69;46.16
30819;BME280;17546;42.674;23.284;2022-11-20T09:33:51;94093.81;;;21.76;47.84
30819;BME280;17546;42.674;23.284;2022-11-20T09:36:20;94095.88;;;21.65;47.60
30819;BME280;17546;42.674;23.284;2022-11-20T09:38:46;94073.50;;;21.77;47.50
30819;BME280;17546;42.674;23.284;2022-11-20T09:47:12;94045.59;;;22.18;46.25
30819;BME280;17546;42.674;23.284;2022-11-20T09:52:40;94052.63;;;22.76;45.04
30819;BME280;17546;42.674;23.284;2022-11-20T09:55:12;94060.31;;;22.75;45.98
30819;BME280;17546;42.674;23.284;2022-11-20T09:57:41;94045.00;;;22.98;46.09
30819;BME280;17546;42.674;23.284;2022-11-20T10:00:11;94050.06;;;22.89;44.90
30819;BME280;17546;42.674;23.284;2022-11-20T10:03:30;94051.72;;;23.02;44.85
30819;BME280;17546;42.674;23.284;2022-11-20T10:05:44;94052.72;;;23.26;44.63
30819;BME280;17546;42.674;23.284;2022-11-20T10:08:22;94044.38;;;23.28;45.27
30819;BME280;17546;42.674;23.284;2022-11-20T10:14:12;94055.81;;;23.71;45.54
30819;BME280;17546;42.674;23.284;2022-11-20T10:28:41;94084.63;;;24.21;44.55
30819;BME280;17546;42.674;23.284;2022-11-20T10:31:08;94066.94;;;24.42;44.06
30819;BME280;17546;42.674;23.284;2022-11-20T10:33:43;94060.19;;;24.47;43.76
30819;BME280;17546;42.674;23.284;2022-11-20T10:36:23;94057.91;;;24.33;43.14
30819;BME280;17546;42.674;23.284;2022-11-20T10:38:58;94077.38;;;24.39;43.14
30819;BME280;17546;42.674;23.284;2022-11-20T10:41:28;94058.78;;;23.73;44.40
30819;BME280;17546;42.674;23.284;2022-11-20T10:46:37;94061.59;;;23.83;44.98
30819;BME280;17546;42.674;23.284;2022-11-20T10:49:09;94044.03;;;23.44;45.23
30819;BME280;17546;42.674;23.284;2022-11-20T10:51:45;94061.66;;;23.13;46.53
30819;BME280;17546;42.674;23.284;2022-11-20T10:56:52;94059.78;;;23.47;46.82
30819;BME280;17546;42.674;23.284;2022-11-20T11:02:41;94098.63;;;22.30;49.90
30819;BME280;17546;42.674;23.284;2022-11-20T11:05:22;94150.72;;;21.92;49.88
30819;BME280;17546;42.674;23.284;2022-11-20T11:07:53;94156.38;;;19.75;51.27
30819;BME280;17546;42.674;23.284;2022-11-20T11:10:24;94145.56;;;19.96;50.50
30819;BME280;17546;42.674;23.284;2022-11-20T11:12:49;94134.69;;;19.93;51.94
30819;BME280;17546;42.674;23.284;2022-11-20T11:15:38;94112.09;;;19.58;51.11
30819;BME280;17546;42.674;23.284;2022-11-20T11:18:07;94095.38;;;19.35;51.05
30819;BME280;17546;42.674;23.284;2022-11-20T11:20:33;94097.19;;;19.15;51.64
30819;BME280;17546;42.674;23.284;2022-11-20T11:22:59;94103.91;;;19.77;49.99
30819;BME280;17546;42.674;23.284;2022-11-20T11:25:33;94091.91;;;19.19;50.60
30819;BME280;17546;42.674;23.284;2022-11-20T11:28:17;94075.91;;;19.04;50.68
30819;BME280;17546;42.674;23.284;2022-11-20T11:30:46;94074.78;;;19.07;51.04
30819;BME280;17546;42.674;23.284;2022-11-20T11:33:28;94070.72;;;18.93;50.91
30819;BME280;17546;42.674;23.284;2022-11-20T11:36:22;94064.94;;;19.24;50.98
30819;BME280;17546;42.674;23.284;2022-11-20T11:38:51;94047.59;;;19.43;50.34
30819;BME280;17546;42.674;23.284;2022-11-20T11:41:24;94039.66;;;18.43;50.90
30819;BME280;17546;42.674;23.284;2022-11-20T11:43:58;94053.00;;;18.83;50.69
30819;BME280;17546;42.674;23.284;2022-11-20T11:46:51;94034.59;;;18.49;50.71
30819;BME280;17546;42.674;23.284;2022-11-20T11:49:19;94045.63;;;18.95;49.67
30819;BME280;17546;42.674;23.284;2022-11-20T11:54:37;94055.53;;;18.96;47.95
30819;BME280;17546;42.674;23.284;2022-11-20T11:57:20;94042.38;;;19.39;47.92
30819;BME280;17546;42.674;23.284;2022-11-20T12:07:58;94048.19;;;19.08;47.98
30819;BME280;17546;42.674;23.284;2022-11-20T12:10:34;94042.66;;;19.26;48.11
30819;BME280;17546;42.674;23.284;2022-11-20T12:15:44;94043.03;;;19.22;48.88
30819;BME280;17546;42.674;23.284;2022-11-20T12:18:16;94055.81;;;18.67;49.30
30819;BME280;17546;42.674;23.284;2022-11-20T12:20:52;94051.88;;;19.18;47.89
30819;BME280;17546;42.674;23.284;2022-11-20T12:35:42;94035.16;;;18.95;49.12
30819;BME280;17546;42.674;23.284;2022-11-20T12:51:24;93978.66;;;20.61;45.74
30819;BME280;17546;42.674;23.284;2022-11-20T13:02:16;94031.66;;;20.65;46.92
30819;BME280;17546;42.674;23.284;2022-11-20T13:05:13;94031.75;;;20.40;48.01
30819;BME280;17546;42.674;23.284;2022-11-20T13:07:35;94038.13;;;20.75;47.56
30819;BME280;17546;42.674;23.284;2022-11-20T13:10:02;94018.06;;;20.89;47.70
30819;BME280;17546;42.674;23.284;2022-11-20T13:12:43;94014.28;;;19.89;49.74
30819;BME280;17546;42.674;23.284;2022-11-20T13:17:59;94055.38;;;20.19;49.81
30819;BME280;17546;42.674;23.284;2022-11-20T13:20:26;94031.72;;;20.05;49.04
30819;BME280;17546;42.674;23.284;2022-11-20T13:22:54;94045.53;;;19.68;49.84
30819;BME280;17546;42.674;23.284;2022-11-20T13:25:31;94039.50;;;20.14;48.81
30819;BME280;17546;42.674;23.284;2022-11-20T13:28:03;94048.28;;;19.26;51.07
30819;BME280;17546;42.674;23.284;2022-11-20T13:30:30;94025.13;;;19.68;50.52
30819;BME280;17546;42.674;23.284;2022-11-20T13:33:06;94060.69;;;19.73;49.89
30819;BME280;17546;42.674;23.284;2022-11-20T13:36:02;94034.91;;;19.84;50.00
30819;BME280;17546;42.674;23.284;2022-11-20T13:38:28;94031.47;;;19.93;50.13
30819;BME280;17546;42.674;23.284;2022-11-20T13:41:07;94025.19;;;19.35;50.46
30819;BME280;17546;42.674;23.284;2022-11-20T13:43:52;94059.94;;;20.32;48.71
30819;BME280;17546;42.674;23.284;2022-11-20T13:46:17;94042.34;;;20.32;48.67
30819;BME280;17546;42.674;23.284;2022-11-20T13:48:49;94063.28;;;20.73;47.97
30819;BME280;17546;42.674;23.284;2022-11-20T14:02:02;94079.34;;;21.08;47.65
30819;BME280;17546;42.674;23.284;2022-11-20T14:04:34;94066.63;;;21.07;47.45
30819;BME280;17546;42.674;23.284;2022-11-20T14:07:04;94077.03;;;21.14;47.61
30819;BME280;17546;42.674;23.284;2022-11-20T14:09:32;94074.00;;;21.29;46.94
30819;BME280;17546;42.674;23.284;2022-11-20T14:11:59;94074.91;;;21.32;46.85
30819;BME280;17546;42.674;23.284;2022-11-20T14:14:30;94076.63;;;21.44;46.78
30819;BME280;17546;42.674;23.284;2022-11-20T14:17:17;94066.63;;;21.61;46.25
30819;BME280;17546;42.674;23.284;2022-11-20T14:19:44;94071.88;;;20.93;47.78
30819;BME280;17546;42.674;23.284;2022-11-20T14:22:21;94068.25;;;20.65;48.41
30819;BME280;17546;42.674;23.284;2022-11-20T14:27:41;94060.53;;;20.66;48.24
30819;BME280;17546;42.674;23.284;2022-11-20T14:30:22;94055.00;;;20.40;48.43
30819;BME280;17546;42.674;23.284;2022-11-20T14:32:49;94076.91;;;20.25;49.10
30819;BME280;17546;42.674;23.284;2022-11-20T14:35:28;94070.72;;;20.61;48.34
30819;BME280;17546;42.674;23.284;2022-11-20T14:37:55;94091.47;;;19.88;48.89
30819;BME280;17546;42.674;23.284;2022-11-20T14:40:30;94076.66;;;20.30;48.37
30819;BME280;17546;42.674;23.284;2022-11-20T14:42:57;94078.03;;;20.21;48.29
30819;BME280;17546;42.674;23.284;2022-11-20T14:45:23;94067.69;;;19.89;48.58